createdAt,value
2023-02-24T00:02:06.346Z,14.93
2023-02-24T00:04:40.896Z,10.30
2023-02-24T00:07:10.860Z,12.10
2023-02-24T00:09:40.267Z,12.55
2023-02-24T00:12:13.376Z,11.13
2023-02-24T00:14:44.757Z,9.60
2023-02-24T00:17:16.423Z,13.05
2023-02-24T00:19:44.514Z,10.73
2023-02-24T00:22:12.992Z,11.15
2023-02-24T00:24:40.941Z,13.20
2023-02-24T00:27:11.955Z,10.73
2023-02-24T00:29:42.321Z,10.43
2023-02-24T00:32:13.520Z,12.25
2023-02-24T00:34:45.408Z,12.10
2023-02-24T00:37:15.557Z,11.48
2023-02-24T00:39:45.765Z,11.88
2023-02-24T00:42:15.054Z,10.30
2023-02-24T00:44:47.261Z,11.98
2023-02-24T00:47:18.233Z,9.55
2023-02-24T00:49:46.634Z,10.10
2023-02-24T00:52:19.402Z,10.63
2023-02-24T00:54:49.434Z,9.45
2023-02-24T00:57:18.800Z,9.43
2023-02-24T00:59:47.911Z,10.82
2023-02-24T01:02:16.383Z,12.02
2023-02-24T01:04:46.219Z,8.88
2023-02-24T01:07:14.954Z,6.47
2023-02-24T01:09:44.448Z,10.35
2023-02-24T01:12:42.961Z,9.60
2023-02-24T01:15:11.702Z,8.93
2023-02-24T01:17:40.877Z,9.50
2023-02-24T01:20:19.205Z,8.70
2023-02-24T01:22:53.505Z,10.57
2023-02-24T01:25:21.868Z,11.73
2023-02-24T01:27:49.701Z,9.38
2023-02-24T01:30:18.663Z,9.05
2023-02-24T01:32:47.719Z,13.18
2023-02-24T01:37:45.713Z,8.90
2023-02-24T01:40:18.959Z,8.55
2023-02-24T01:42:47.969Z,7.90
2023-02-24T01:45:22.016Z,9.68
2023-02-24T01:47:53.249Z,8.88
2023-02-24T01:50:23.816Z,6.72
2023-02-24T01:52:59.318Z,8.18
2023-02-24T01:55:32.613Z,8.73
2023-02-24T01:58:05.172Z,9.02
2023-02-24T02:00:38.153Z,9.43
2023-02-24T02:03:11.982Z,10.25
2023-02-24T02:05:41.036Z,11.77
2023-02-24T02:10:41.454Z,9.57
2023-02-24T02:13:10.402Z,11.57
2023-02-24T02:15:47.449Z,11.38
2023-02-24T02:18:44.706Z,13.15
2023-02-24T02:21:32.832Z,11.65
2023-02-24T02:24:21.240Z,11.50
2023-02-24T02:27:10.790Z,12.38
2023-02-24T02:29:59.576Z,8.75
2023-02-24T02:32:39.529Z,10.52
2023-02-24T02:35:26.568Z,12.48
2023-02-24T02:38:05.765Z,10.50
2023-02-24T02:40:41.249Z,10.55
2023-02-24T02:43:26.136Z,8.70
2023-02-24T02:46:15.307Z,9.10
2023-02-24T02:48:58.487Z,8.13
2023-02-24T02:51:38.950Z,8.82
2023-02-24T02:54:17.137Z,8.88
2023-02-24T02:57:55.358Z,10.27
2023-02-24T03:00:29.613Z,10.25
2023-02-24T03:03:04.161Z,10.93
2023-02-24T03:05:46.725Z,11.65
2023-02-24T03:08:19.375Z,10.27
2023-02-24T03:10:51.920Z,8.80
2023-02-24T03:13:30.531Z,8.52
2023-02-24T03:16:02.657Z,11.90
2023-02-24T03:18:35.603Z,9.80
2023-02-24T03:21:08.130Z,8.38
2023-02-24T03:23:40.923Z,11.85
2023-02-24T03:26:30.520Z,7.65
2023-02-24T03:29:36.904Z,7.68
2023-02-24T03:32:12.762Z,10.10
2023-02-24T03:34:52.479Z,13.88
2023-02-24T03:37:25.986Z,10.57
2023-02-24T03:39:57.443Z,9.98
2023-02-24T03:42:31.283Z,8.88
2023-02-24T03:44:59.407Z,11.85
2023-02-24T03:47:27.772Z,12.25
2023-02-24T03:49:55.715Z,10.32
2023-02-24T03:52:49.735Z,9.15
2023-02-24T03:55:54.943Z,6.85
2023-02-24T03:59:00.029Z,10.98
2023-02-24T04:01:58.201Z,7.47
2023-02-24T04:04:46.039Z,7.72
2023-02-24T04:07:26.637Z,19.00
2023-02-24T04:10:15.499Z,6.95
2023-02-24T04:12:52.526Z,7.43
2023-02-24T04:15:29.750Z,13.30
2023-02-24T04:18:15.183Z,9.15
2023-02-24T04:20:49.610Z,7.32
2023-02-24T04:23:22.675Z,8.07
2023-02-24T04:25:53.555Z,7.07
2023-02-24T04:28:25.738Z,11.75
2023-02-24T04:31:10.387Z,14.65
2023-02-24T04:33:40.527Z,9.88
2023-02-24T04:36:13.086Z,6.93
2023-02-24T04:38:42.606Z,8.70
2023-02-24T04:41:10.788Z,9.32
2023-02-24T04:43:38.652Z,8.63
2023-02-24T04:46:08.342Z,6.30
2023-02-24T04:48:36.462Z,10.73
2023-02-24T04:51:06.815Z,8.25
2023-02-24T04:53:34.867Z,11.95
2023-02-24T04:56:09.204Z,7.45
2023-02-24T04:58:38.932Z,9.82
2023-02-24T05:01:11.167Z,13.02
2023-02-24T05:03:42.636Z,10.38
2023-02-24T05:06:18.063Z,13.98
2023-02-24T05:08:46.171Z,7.85
2023-02-24T05:11:21.757Z,9.50
2023-02-24T05:13:50.033Z,7.68
2023-02-24T05:16:20.605Z,6.40
2023-02-24T05:18:48.765Z,12.18
2023-02-24T05:21:35.958Z,9.55
2023-02-24T05:24:07.440Z,7.55
2023-02-24T05:26:38.016Z,7.70
2023-02-24T05:29:07.255Z,11.00
2023-02-24T05:34:06.444Z,8.40
2023-02-24T05:36:40.873Z,7.68
2023-02-24T05:39:12.900Z,10.77
2023-02-24T05:41:43.410Z,9.70
2023-02-24T05:44:16.062Z,6.57
2023-02-24T05:46:46.871Z,8.32
2023-02-24T05:49:24.218Z,7.97
2023-02-24T05:51:57.309Z,11.93
2023-02-24T05:54:32.389Z,7.03
2023-02-24T05:57:12.085Z,7.82
2023-02-24T05:59:44.885Z,8.48
2023-02-24T06:02:15.180Z,8.65
2023-02-24T06:04:51.575Z,10.02
2023-02-24T06:07:34.573Z,14.32
2023-02-24T06:10:05.020Z,17.38
2023-02-24T06:12:34.532Z,23.58
2023-02-24T06:15:08.054Z,27.88
2023-02-24T06:17:36.232Z,25.58
2023-02-24T06:20:14.692Z,36.03
2023-02-24T06:22:42.796Z,24.17
2023-02-24T06:25:14.344Z,37.33
2023-02-24T06:27:43.302Z,32.17
2023-02-24T06:30:12.072Z,30.67
2023-02-24T06:32:40.375Z,18.95
2023-02-24T06:35:09.700Z,22.88
2023-02-24T06:37:37.580Z,15.68
2023-02-24T06:40:16.131Z,23.80
2023-02-24T06:42:46.651Z,8.40
2023-02-24T06:45:15.620Z,7.55
2023-02-24T06:50:12.570Z,8.90
2023-02-24T06:55:25.863Z,8.27
2023-02-24T06:57:59.674Z,8.48
2023-02-24T07:00:37.421Z,8.75
2023-02-24T07:03:17.377Z,8.40
2023-02-24T07:05:51.006Z,10.50
2023-02-24T07:08:23.086Z,8.27
2023-02-24T07:10:56.171Z,9.50
2023-02-24T07:13:26.084Z,8.38
2023-02-24T07:15:55.059Z,12.60
2023-02-24T07:18:26.842Z,9.40
2023-02-24T07:20:54.848Z,9.05
2023-02-24T07:23:22.723Z,12.35
2023-02-24T07:25:50.593Z,9.07
2023-02-24T07:28:19.432Z,12.48
2023-02-24T07:30:47.370Z,8.73
2023-02-24T07:33:15.398Z,9.70
2023-02-24T07:35:43.717Z,14.70
2023-02-24T07:38:14.602Z,8.90
2023-02-24T07:40:42.478Z,12.05
2023-02-24T07:43:11.302Z,9.25
2023-02-24T07:45:39.708Z,8.85
2023-02-24T07:48:08.095Z,9.52
2023-02-24T07:50:36.028Z,7.65
2023-02-24T07:53:05.725Z,10.73
2023-02-24T07:55:36.363Z,8.25
2023-02-24T07:58:06.169Z,12.27
2023-02-24T08:00:51.144Z,9.02
2023-02-24T08:03:19.260Z,12.80
2023-02-24T08:05:47.178Z,11.13
2023-02-24T08:08:21.217Z,7.28
2023-02-24T08:10:49.272Z,10.38
2023-02-24T08:13:19.424Z,8.68
2023-02-24T08:15:56.850Z,9.90
2023-02-24T08:18:24.873Z,10.65
2023-02-24T08:20:52.947Z,8.35
2023-02-24T08:23:23.725Z,9.68
2023-02-24T08:25:51.998Z,9.25
2023-02-24T08:28:20.154Z,10.50
2023-02-24T08:30:48.093Z,8.65
2023-02-24T08:33:24.493Z,8.13
2023-02-24T08:36:01.751Z,10.77
2023-02-24T08:38:44.966Z,10.25
2023-02-24T08:41:21.683Z,9.57
2023-02-24T08:43:50.024Z,12.05
2023-02-24T08:46:26.922Z,9.40
2023-02-24T08:49:01.015Z,14.32
2023-02-24T08:51:37.340Z,10.10
2023-02-24T08:54:15.677Z,10.32
2023-02-24T08:56:49.428Z,8.82
2023-02-24T08:59:37.339Z,10.00
2023-02-24T09:02:17.825Z,10.10
2023-02-24T09:04:47.784Z,11.95
2023-02-24T09:07:18.885Z,9.48
2023-02-24T09:09:47.797Z,12.77
2023-02-24T09:12:24.852Z,9.48
2023-02-24T09:14:56.232Z,10.98
2023-02-24T09:17:45.682Z,7.22
2023-02-24T09:20:27.546Z,7.65
2023-02-24T09:23:18.320Z,8.32
2023-02-24T09:25:51.007Z,15.07
2023-02-24T09:28:27.659Z,9.27
2023-02-24T09:31:00.002Z,10.13
2023-02-24T09:33:39.911Z,10.50
2023-02-24T09:36:28.449Z,9.98
2023-02-24T09:39:00.697Z,9.68
2023-02-24T09:42:18.491Z,14.38
2023-02-24T09:44:53.052Z,10.10
2023-02-24T09:47:40.499Z,10.02
2023-02-24T09:50:59.120Z,7.30
2023-02-24T09:53:18.987Z,7.90
2023-02-24T09:56:00.551Z,9.18
2023-02-24T09:58:48.108Z,8.00
2023-02-24T10:01:23.215Z,9.02
2023-02-24T10:06:35.440Z,8.55
2023-02-24T10:09:14.102Z,11.73
2023-02-24T10:11:53.931Z,12.65
2023-02-24T10:14:53.226Z,12.63
2023-02-24T10:20:29.408Z,10.73
2023-02-24T10:23:11.354Z,9.70
2023-02-24T10:25:54.307Z,11.82
2023-02-24T10:28:37.990Z,18.60
2023-02-24T10:31:26.754Z,8.05
2023-02-24T10:34:01.240Z,11.30
2023-02-24T10:36:35.883Z,9.85
2023-02-24T10:39:25.866Z,9.52
2023-02-24T10:42:17.971Z,10.80
2023-02-24T10:45:02.346Z,9.07
2023-02-24T10:47:31.858Z,9.85
2023-02-24T10:57:18.797Z,9.63
2023-02-24T11:00:16.891Z,14.30
2023-02-24T11:03:07.280Z,11.95
2023-02-24T11:06:05.921Z,12.90
2023-02-24T11:08:40.052Z,12.10
2023-02-24T11:11:26.088Z,13.68
2023-02-24T11:14:15.183Z,10.77
2023-02-24T11:17:13.942Z,15.02
2023-02-24T11:19:47.587Z,12.50
2023-02-24T11:22:20.685Z,14.70
2023-02-24T11:24:50.380Z,32.28
2023-02-24T11:27:26.761Z,19.70
2023-02-24T11:30:25.289Z,20.45
2023-02-24T11:33:05.077Z,20.17
2023-02-24T11:35:43.544Z,23.52
2023-02-24T11:38:29.162Z,12.60
2023-02-24T11:41:05.594Z,15.82
2023-02-24T11:43:37.297Z,19.23
2023-02-24T11:46:17.909Z,14.68
2023-02-24T11:48:57.292Z,19.15
2023-02-24T11:51:30.414Z,21.90
2023-02-24T11:54:12.096Z,16.45
2023-02-24T11:56:44.248Z,12.73
2023-02-24T11:59:33.708Z,11.90
2023-02-24T12:02:47.346Z,15.45
2023-02-24T12:05:19.204Z,12.68
2023-02-24T12:07:56.633Z,13.77
2023-02-24T12:10:36.161Z,13.23
2023-02-24T12:13:39.056Z,10.98
2023-02-24T12:16:15.362Z,13.82
2023-02-24T12:18:50.723Z,10.52
2023-02-24T12:21:30.906Z,11.25
2023-02-24T12:23:59.496Z,13.60
2023-02-24T12:26:48.344Z,14.80
2023-02-24T12:29:42.735Z,12.30
2023-02-24T12:32:21.233Z,14.05
2023-02-24T12:35:11.388Z,15.88
2023-02-24T12:38:06.638Z,14.07
2023-02-24T12:41:04.165Z,11.38
2023-02-24T12:43:50.638Z,12.60
2023-02-24T12:46:38.850Z,12.25
2023-02-24T12:49:33.808Z,20.02
2023-02-24T12:52:25.079Z,11.60
2023-02-24T12:55:02.868Z,85.05
2023-02-24T12:57:40.598Z,29.45
2023-02-24T13:00:18.180Z,15.30
2023-02-24T13:03:06.460Z,10.63
2023-02-24T13:05:48.769Z,14.52
2023-02-24T13:08:28.855Z,11.63
2023-02-24T13:11:06.760Z,13.98
2023-02-24T13:13:45.110Z,14.60
2023-02-24T13:16:13.504Z,14.27
2023-02-24T13:18:41.737Z,15.60
2023-02-24T13:21:15.627Z,11.40
2023-02-24T13:23:57.447Z,11.38
2023-02-24T13:26:28.241Z,12.23
2023-02-24T13:29:15.690Z,10.60
2023-02-24T13:31:51.739Z,12.40
2023-02-24T13:34:30.954Z,13.32
2023-02-24T13:36:59.545Z,16.92
2023-02-24T13:42:21.088Z,14.15
2023-02-24T13:45:13.466Z,16.23
2023-02-24T13:47:54.765Z,17.70
2023-02-24T13:50:33.161Z,12.68
2023-02-24T13:53:29.907Z,11.07
2023-02-24T13:56:34.510Z,18.98
2023-02-24T13:59:21.055Z,32.75
2023-02-24T14:02:01.660Z,23.23
2023-02-24T14:04:35.339Z,17.50
2023-02-24T14:07:09.797Z,15.75
2023-02-24T14:09:46.110Z,12.32
2023-02-24T14:12:25.449Z,15.05
2023-02-24T14:14:54.587Z,22.52
2023-02-24T14:17:32.835Z,26.23
2023-02-24T14:20:09.922Z,23.42
2023-02-24T14:22:55.538Z,14.13
2023-02-24T14:25:24.172Z,22.08
2023-02-24T14:27:55.068Z,15.77
2023-02-24T14:30:28.141Z,16.80
2023-02-24T14:32:56.673Z,23.58
2023-02-24T14:35:31.800Z,38.22
2023-02-24T14:38:02.167Z,31.70
2023-02-24T14:40:30.715Z,19.27
2023-02-24T14:42:58.799Z,21.95
2023-02-24T14:45:28.966Z,17.33
2023-02-24T14:47:57.649Z,18.50
2023-02-24T14:50:33.600Z,15.52
2023-02-24T14:53:12.433Z,24.90
2023-02-24T14:55:43.265Z,14.05
2023-02-24T14:58:28.595Z,13.00
2023-02-24T15:01:04.013Z,10.88
2023-02-24T15:03:46.674Z,10.25
2023-02-24T15:06:41.037Z,20.90
2023-02-24T15:09:19.244Z,38.38
2023-02-24T15:11:48.521Z,18.92
2023-02-24T15:14:31.255Z,65.20
2023-02-24T15:17:04.221Z,29.23
2023-02-24T15:19:44.551Z,26.05
2023-02-24T15:22:33.958Z,109.07
2023-02-24T15:25:22.353Z,205.60
2023-02-24T15:27:57.649Z,53.10
2023-02-24T15:30:33.557Z,44.53
2023-02-24T15:33:17.840Z,20.60
2023-02-24T15:35:58.703Z,69.57
2023-02-24T15:38:36.757Z,33.03
2023-02-24T15:41:06.887Z,29.30
2023-02-24T15:43:48.656Z,23.33
2023-02-24T15:46:19.331Z,22.38
2023-02-24T15:48:50.685Z,21.05
2023-02-24T15:51:29.611Z,26.23
2023-02-24T15:54:01.094Z,26.73
2023-02-24T15:56:33.226Z,27.83
2023-02-24T15:59:02.961Z,21.30
2023-02-24T16:01:31.807Z,21.30
2023-02-24T16:04:01.037Z,25.25
2023-02-24T16:06:29.657Z,30.48
2023-02-24T16:08:58.520Z,51.83
2023-02-24T16:11:29.626Z,173.07
2023-02-24T16:14:00.221Z,118.10
2023-02-24T16:16:29.069Z,87.53
2023-02-24T16:18:57.762Z,43.78
2023-02-24T16:21:26.186Z,34.15
2023-02-24T16:23:54.887Z,44.67
2023-02-24T16:28:58.206Z,55.00
2023-02-24T16:31:27.864Z,53.30
2023-02-24T16:33:56.479Z,42.13
2023-02-24T16:36:25.936Z,48.92
2023-02-24T16:38:54.292Z,63.83
2023-02-24T16:41:23.692Z,36.55
2023-02-24T16:43:52.349Z,52.47
2023-02-24T16:46:23.620Z,44.58
2023-02-24T16:48:53.755Z,30.20
2023-02-24T16:51:22.377Z,42.58
2023-02-24T16:53:50.654Z,31.20
2023-02-24T16:56:19.270Z,24.92
2023-02-24T16:58:47.639Z,25.80
2023-02-24T17:01:21.072Z,24.63
2023-02-24T17:03:51.528Z,22.83
2023-02-24T17:06:22.534Z,43.72
2023-02-24T17:08:52.016Z,36.13
2023-02-24T17:11:22.319Z,36.28
2023-02-24T17:13:50.858Z,50.80
2023-02-24T17:16:19.449Z,43.28
2023-02-24T17:18:48.077Z,41.25
2023-02-24T17:21:17.209Z,41.40
2023-02-24T17:23:46.175Z,85.80
2023-02-24T17:28:44.262Z,38.22
2023-02-24T17:31:12.818Z,73.03
2023-02-24T17:33:42.051Z,96.15
2023-02-24T17:36:10.958Z,67.95
2023-02-24T17:41:07.473Z,38.85
2023-02-24T17:43:36.095Z,35.03
2023-02-24T17:46:06.940Z,45.15
2023-02-24T17:48:36.092Z,202.48
2023-02-24T17:51:04.456Z,54.92
2023-02-24T17:53:33.084Z,46.88
2023-02-24T17:56:06.427Z,38.50
2023-02-24T17:58:35.263Z,49.75
2023-02-24T18:01:06.611Z,28.08
2023-02-24T18:03:36.714Z,29.92
2023-02-24T18:06:13.338Z,25.25
2023-02-24T18:08:41.833Z,30.65
2023-02-24T18:11:16.404Z,28.23
2023-02-24T18:13:45.302Z,86.07
2023-02-24T18:16:16.809Z,32.75
2023-02-24T18:18:45.484Z,45.03
2023-02-24T18:21:13.922Z,69.60
2023-02-24T18:23:42.373Z,68.82
2023-02-24T18:26:12.764Z,72.82
2023-02-24T18:28:41.347Z,167.32
2023-02-24T18:31:21.565Z,135.05
2023-02-24T18:33:50.490Z,123.75
2023-02-24T18:36:20.083Z,134.55
2023-02-24T18:38:48.813Z,79.90
2023-02-24T18:41:19.594Z,76.30
2023-02-24T18:43:49.345Z,105.72
2023-02-24T18:46:19.445Z,119.32
2023-02-24T18:48:50.630Z,145.93
2023-02-24T18:51:22.499Z,156.38
2023-02-24T18:53:52.891Z,146.85
2023-02-24T18:56:26.687Z,130.65
2023-02-24T18:58:58.100Z,123.03
2023-02-24T19:01:33.020Z,84.07
2023-02-24T19:04:02.017Z,59.22
2023-02-24T19:06:32.492Z,73.75
2023-02-24T19:09:07.934Z,73.38
2023-02-24T19:11:37.543Z,84.72
2023-02-24T19:14:06.810Z,82.10
2023-02-24T19:16:35.505Z,112.60
2023-02-24T19:19:04.592Z,62.20
2023-02-24T19:24:04.148Z,20.50
2023-02-24T19:26:32.675Z,21.60
2023-02-24T19:29:01.137Z,19.77
2023-02-24T19:31:31.820Z,22.88
2023-02-24T19:34:03.521Z,17.50
2023-02-24T19:36:33.223Z,16.92
2023-02-24T19:39:02.082Z,31.05
2023-02-24T19:41:30.781Z,36.28
2023-02-24T19:43:59.348Z,33.53
2023-02-24T19:46:29.198Z,45.10
2023-02-24T19:48:57.368Z,40.22
2023-02-24T19:51:26.436Z,39.63
2023-02-24T19:53:57.107Z,62.03
2023-02-24T19:56:33.922Z,66.40
2023-02-24T19:59:03.704Z,32.83
2023-02-24T20:01:32.268Z,19.70
2023-02-24T20:04:03.053Z,66.07
2023-02-24T20:06:36.147Z,84.63
2023-02-24T20:09:10.173Z,85.60
2023-02-24T20:11:39.926Z,71.82
2023-02-24T20:14:09.745Z,79.10
2023-02-24T20:16:42.829Z,100.50
2023-02-24T20:19:13.136Z,102.45
2023-02-24T20:21:42.618Z,103.95
2023-02-24T20:24:15.057Z,96.20
2023-02-24T20:26:47.489Z,77.28
2023-02-24T20:29:18.535Z,72.97
2023-02-24T20:31:47.782Z,67.10
2023-02-24T20:34:17.220Z,41.53
2023-02-24T20:36:45.964Z,40.22
2023-02-24T20:39:14.797Z,39.88
2023-02-24T20:41:44.171Z,48.28
2023-02-24T20:44:12.577Z,46.00
2023-02-24T20:46:41.007Z,38.95
2023-02-24T20:49:15.020Z,39.75
2023-02-24T20:51:43.953Z,35.33
2023-02-24T20:54:13.350Z,40.72
2023-02-24T20:56:44.576Z,42.20
2023-02-24T20:59:16.881Z,57.60
2023-02-24T21:01:47.947Z,68.97
2023-02-24T21:04:19.496Z,75.47
2023-02-24T21:06:48.879Z,66.07
2023-02-24T21:09:17.298Z,48.22
2023-02-24T21:11:45.692Z,46.60
2023-02-24T21:14:16.064Z,39.55
2023-02-24T21:16:46.489Z,42.33
2023-02-24T21:19:15.397Z,35.08
2023-02-24T21:21:43.493Z,29.95
2023-02-24T21:24:11.645Z,26.67
2023-02-24T21:26:39.877Z,36.85
2023-02-24T21:29:08.477Z,29.15
2023-02-24T21:31:36.738Z,39.00
2023-02-24T21:34:05.186Z,34.25
2023-02-24T21:36:33.167Z,34.45
2023-02-24T21:39:01.471Z,30.55
2023-02-24T21:41:29.621Z,36.00
2023-02-24T21:44:00.809Z,34.17
2023-02-24T21:46:29.337Z,43.03
2023-02-24T21:48:58.709Z,30.33
2023-02-24T21:51:28.093Z,35.90
2023-02-24T21:53:58.000Z,26.63
2023-02-24T21:56:28.881Z,38.10
2023-02-24T21:59:05.976Z,41.70
2023-02-24T22:01:36.963Z,44.75
2023-02-24T22:04:09.138Z,42.85
2023-02-24T22:06:39.341Z,47.78
2023-02-24T22:09:09.958Z,51.97
2023-02-24T22:11:41.225Z,51.88
2023-02-24T22:14:11.859Z,47.75
2023-02-24T22:16:40.988Z,39.92
2023-02-24T22:21:39.422Z,30.95
2023-02-24T22:24:07.603Z,32.67
2023-02-24T22:26:35.423Z,35.15
2023-02-24T22:29:03.709Z,34.67
2023-02-24T22:31:33.700Z,27.92
2023-02-24T22:34:01.738Z,34.42
2023-02-24T22:36:32.089Z,41.28
2023-02-24T22:39:01.953Z,55.97
2023-02-24T22:41:32.499Z,60.95
2023-02-24T22:44:01.942Z,29.73
2023-02-24T22:46:32.951Z,20.55
2023-02-24T22:49:01.199Z,34.67
2023-02-24T22:51:29.212Z,28.85
2023-02-24T22:53:57.306Z,21.10
2023-02-24T22:56:28.000Z,21.60
2023-02-24T22:58:56.390Z,25.13
2023-02-24T23:01:30.456Z,27.10
2023-02-24T23:04:03.948Z,26.20
2023-02-24T23:06:32.696Z,17.70
2023-02-24T23:09:01.178Z,18.63
2023-02-24T23:11:35.201Z,16.27
2023-02-24T23:14:06.225Z,21.27
2023-02-24T23:16:35.355Z,17.20
2023-02-24T23:19:06.461Z,24.85
2023-02-24T23:21:43.455Z,18.88
2023-02-24T23:24:14.064Z,27.80
2023-02-24T23:26:47.432Z,17.35
2023-02-24T23:29:17.743Z,17.40
2023-02-24T23:31:46.428Z,23.23
2023-02-24T23:34:15.202Z,19.25
2023-02-24T23:36:45.491Z,32.00
2023-02-24T23:39:16.268Z,21.52
2023-02-24T23:41:44.504Z,22.60
2023-02-24T23:44:12.979Z,21.40
2023-02-24T23:46:44.792Z,19.70
2023-02-24T23:49:12.822Z,16.13
2023-02-24T23:51:48.407Z,19.40
2023-02-24T23:54:18.472Z,39.53
2023-02-24T23:56:49.048Z,19.73
2023-02-24T23:59:17.156Z,20.88
